sensor_id;sensor_type;location;lat;lon;timestamp;P1;durP1;ratioP1;P2;durP2;ratioP2
11394;SDS011;5753;54.402;10.220;2023-04-01T00:00:46;12.52;;;7.18;;
11394;SDS011;5753;54.402;10.220;2023-04-01T00:03:12;8.05;;;4.70;;
11394;SDS011;5753;54.402;10.220;2023-04-01T00:05:39;5.50;;;3.85;;
11394;SDS011;5753;54.402;10.220;2023-04-01T00:08:05;10.77;;;6.60;;
11394;SDS011;5753;54.402;10.220;2023-04-01T00:10:31;17.02;;;6.93;;
11394;SDS011;5753;54.402;10.220;2023-04-01T00:12:57;7.97;;;5.32;;
11394;SDS011;5753;54.402;10.220;2023-04-01T00:15:23;10.95;;;5.43;;
11394;SDS011;5753;54.402;10.220;2023-04-01T00:17:49;8.50;;;6.40;;
11394;SDS011;5753;54.402;10.220;2023-04-01T00:20:15;12.43;;;6.55;;
11394;SDS011;5753;54.402;10.220;2023-04-01T00:22:41;10.35;;;6.88;;
11394;SDS011;5753;54.402;10.220;2023-04-01T00:25:07;11.13;;;5.88;;
11394;SDS011;5753;54.402;10.220;2023-04-01T00:27:34;9.13;;;5.93;;
11394;SDS011;5753;54.402;10.220;2023-04-01T00:30:00;11.45;;;6.10;;
11394;SDS011;5753;54.402;10.220;2023-04-01T00:32:27;8.60;;;6.30;;
11394;SDS011;5753;54.402;10.220;2023-04-01T00:34:53;13.20;;;6.88;;
11394;SDS011;5753;54.402;10.220;2023-04-01T00:37:20;9.63;;;6.75;;
11394;SDS011;5753;54.402;10.220;2023-04-01T00:39:46;6.68;;;5.40;;
11394;SDS011;5753;54.402;10.220;2023-04-01T00:42:12;11.80;;;6.65;;
11394;SDS011;5753;54.402;10.220;2023-04-01T00:44:38;11.00;;;5.43;;
11394;SDS011;5753;54.402;10.220;2023-04-01T00:47:05;7.25;;;5.68;;
11394;SDS011;5753;54.402;10.220;2023-04-01T00:49:42;8.02;;;5.28;;
11394;SDS011;5753;54.402;10.220;2023-04-01T00:52:12;8.95;;;6.18;;
11394;SDS011;5753;54.402;10.220;2023-04-01T00:54:43;9.75;;;6.22;;
11394;SDS011;5753;54.402;10.220;2023-04-01T00:57:13;16.73;;;7.00;;
11394;SDS011;5753;54.402;10.220;2023-04-01T00:59:47;9.82;;;4.70;;
11394;SDS011;5753;54.402;10.220;2023-04-01T01:02:17;4.80;;;4.15;;
11394;SDS011;5753;54.402;10.220;2023-04-01T01:04:44;9.23;;;5.18;;
11394;SDS011;5753;54.402;10.220;2023-04-01T01:07:24;7.82;;;5.15;;
11394;SDS011;5753;54.402;10.220;2023-04-01T01:15:21;7.53;;;3.05;;
11394;SDS011;5753;54.402;10.220;2023-04-01T01:31:12;6.95;;;4.50;;
11394;SDS011;5753;54.402;10.220;2023-04-01T01:33:48;5.03;;;2.73;;
11394;SDS011;5753;54.402;10.220;2023-04-01T01:36:32;4.38;;;2.63;;
11394;SDS011;5753;54.402;10.220;2023-04-01T01:39:03;6.00;;;2.40;;
11394;SDS011;5753;54.402;10.220;2023-04-01T01:41:31;4.50;;;2.38;;
11394;SDS011;5753;54.402;10.220;2023-04-01T01:43:59;6.97;;;3.70;;
11394;SDS011;5753;54.402;10.220;2023-04-01T01:46:29;3.92;;;2.65;;
11394;SDS011;5753;54.402;10.220;2023-04-01T01:48:56;8.38;;;2.90;;
11394;SDS011;5753;54.402;10.220;2023-04-01T01:51:25;5.60;;;2.80;;
11394;SDS011;5753;54.402;10.220;2023-04-01T01:53:53;8.20;;;2.47;;
11394;SDS011;5753;54.402;10.220;2023-04-01T01:56:20;3.78;;;3.47;;
11394;SDS011;5753;54.402;10.220;2023-04-01T01:58:50;4.50;;;3.08;;
11394;SDS011;5753;54.402;10.220;2023-04-01T02:01:21;6.30;;;3.20;;
11394;SDS011;5753;54.402;10.220;2023-04-01T02:03:51;5.18;;;3.22;;
11394;SDS011;5753;54.402;10.220;2023-04-01T02:06:21;6.72;;;1.75;;
11394;SDS011;5753;54.402;10.220;2023-04-01T02:08:53;3.53;;;2.08;;
11394;SDS011;5753;54.402;10.220;2023-04-01T02:11:32;3.10;;;2.38;;
11394;SDS011;5753;54.402;10.220;2023-04-01T02:14:07;4.18;;;2.03;;
11394;SDS011;5753;54.402;10.220;2023-04-01T02:19:07;2.97;;;2.67;;
11394;SDS011;5753;54.402;10.220;2023-04-01T02:21:37;3.55;;;2.47;;
11394;SDS011;5753;54.402;10.220;2023-04-01T02:24:06;7.30;;;1.80;;
11394;SDS011;5753;54.402;10.220;2023-04-01T02:26:36;10.93;;;2.10;;
11394;SDS011;5753;54.402;10.220;2023-04-01T02:29:03;2.40;;;1.13;;
11394;SDS011;5753;54.402;10.220;2023-04-01T02:31:31;1.20;;;1.10;;
11394;SDS011;5753;54.402;10.220;2023-04-01T02:33:58;1.67;;;1.23;;
11394;SDS011;5753;54.402;10.220;2023-04-01T02:36:25;1.95;;;1.13;;
11394;SDS011;5753;54.402;10.220;2023-04-01T02:38:51;1.92;;;1.25;;
11394;SDS011;5753;54.402;10.220;2023-04-01T02:41:19;3.65;;;1.48;;
11394;SDS011;5753;54.402;10.220;2023-04-01T02:43:46;1.50;;;1.45;;
11394;SDS011;5753;54.402;10.220;2023-04-01T02:46:12;2.75;;;0.82;;
11394;SDS011;5753;54.402;10.220;2023-04-01T02:48:38;3.50;;;0.82;;
11394;SDS011;5753;54.402;10.220;2023-04-01T02:51:04;4.47;;;2.33;;
11394;SDS011;5753;54.402;10.220;2023-04-01T02:53:30;0.80;;;0.80;;
11394;SDS011;5753;54.402;10.220;2023-04-01T02:55:56;2.85;;;1.35;;
11394;SDS011;5753;54.402;10.220;2023-04-01T02:58:22;2.90;;;0.85;;
11394;SDS011;5753;54.402;10.220;2023-04-01T03:00:48;4.55;;;1.27;;
11394;SDS011;5753;54.402;10.220;2023-04-01T03:03:14;2.17;;;1.98;;
11394;SDS011;5753;54.402;10.220;2023-04-01T03:05:40;2.90;;;0.90;;
11394;SDS011;5753;54.402;10.220;2023-04-01T03:08:07;4.07;;;2.35;;
11394;SDS011;5753;54.402;10.220;2023-04-01T03:10:33;6.88;;;2.72;;
11394;SDS011;5753;54.402;10.220;2023-04-01T03:12:59;2.22;;;1.13;;
11394;SDS011;5753;54.402;10.220;2023-04-01T03:15:25;2.97;;;1.38;;
11394;SDS011;5753;54.402;10.220;2023-04-01T03:17:51;2.92;;;2.30;;
11394;SDS011;5753;54.402;10.220;2023-04-01T03:20:17;2.70;;;1.55;;
11394;SDS011;5753;54.402;10.220;2023-04-01T03:22:44;1.67;;;1.25;;
11394;SDS011;5753;54.402;10.220;2023-04-01T03:25:11;2.53;;;1.92;;
11394;SDS011;5753;54.402;10.220;2023-04-01T03:27:38;7.13;;;1.55;;
11394;SDS011;5753;54.402;10.220;2023-04-01T03:30:04;2.63;;;1.80;;
11394;SDS011;5753;54.402;10.220;2023-04-01T03:32:31;0.98;;;0.85;;
11394;SDS011;5753;54.402;10.220;2023-04-01T03:34:57;1.83;;;1.27;;
11394;SDS011;5753;54.402;10.220;2023-04-01T03:37:23;2.95;;;2.63;;
11394;SDS011;5753;54.402;10.220;2023-04-01T03:39:50;2.92;;;2.13;;
11394;SDS011;5753;54.402;10.220;2023-04-01T03:42:16;2.88;;;2.20;;
11394;SDS011;5753;54.402;10.220;2023-04-01T03:44:42;2.13;;;2.03;;
11394;SDS011;5753;54.402;10.220;2023-04-01T03:47:08;3.00;;;1.73;;
11394;SDS011;5753;54.402;10.220;2023-04-01T03:49:34;4.60;;;2.17;;
11394;SDS011;5753;54.402;10.220;2023-04-01T03:52:01;1.88;;;1.00;;
11394;SDS011;5753;54.402;10.220;2023-04-01T03:54:27;2.45;;;2.13;;
11394;SDS011;5753;54.402;10.220;2023-04-01T03:56:53;11.25;;;1.60;;
11394;SDS011;5753;54.402;10.220;2023-04-01T03:59:20;0.88;;;0.88;;
11394;SDS011;5753;54.402;10.220;2023-04-01T04:01:46;1.05;;;0.90;;
11394;SDS011;5753;54.402;10.220;2023-04-01T04:04:13;3.80;;;1.40;;
11394;SDS011;5753;54.402;10.220;2023-04-01T04:06:39;5.93;;;0.88;;
11394;SDS011;5753;54.402;10.220;2023-04-01T04:09:05;1.02;;;0.95;;
11394;SDS011;5753;54.402;10.220;2023-04-01T04:11:31;2.17;;;0.85;;
11394;SDS011;5753;54.402;10.220;2023-04-01T04:13:58;1.30;;;0.77;;
11394;SDS011;5753;54.402;10.220;2023-04-01T04:16:24;2.38;;;1.10;;
11394;SDS011;5753;54.402;10.220;2023-04-01T04:18:50;2.30;;;1.92;;
11394;SDS011;5753;54.402;10.220;2023-04-01T04:21:16;2.55;;;1.30;;
11394;SDS011;5753;54.402;10.220;2023-04-01T04:23:43;6.75;;;1.08;;
11394;SDS011;5753;54.402;10.220;2023-04-01T04:26:10;2.70;;;1.42;;
11394;SDS011;5753;54.402;10.220;2023-04-01T04:28:38;9.60;;;2.30;;
11394;SDS011;5753;54.402;10.220;2023-04-01T04:31:05;8.88;;;2.70;;
11394;SDS011;5753;54.402;10.220;2023-04-01T04:33:32;1.65;;;1.33;;
11394;SDS011;5753;54.402;10.220;2023-04-01T04:35:59;3.90;;;1.83;;
11394;SDS011;5753;54.402;10.220;2023-04-01T04:38:26;12.20;;;3.08;;
11394;SDS011;5753;54.402;10.220;2023-04-01T04:40:53;3.97;;;1.67;;
11394;SDS011;5753;54.402;10.220;2023-04-01T04:43:19;0.70;;;0.70;;
11394;SDS011;5753;54.402;10.220;2023-04-01T04:45:45;4.50;;;1.45;;
11394;SDS011;5753;54.402;10.220;2023-04-01T04:48:12;2.17;;;1.98;;
11394;SDS011;5753;54.402;10.220;2023-04-01T04:50:43;1.45;;;1.27;;
11394;SDS011;5753;54.402;10.220;2023-04-01T04:53:13;7.97;;;1.38;;
11394;SDS011;5753;54.402;10.220;2023-04-01T04:55:44;4.00;;;2.67;;
11394;SDS011;5753;54.402;10.220;2023-04-01T04:58:12;5.45;;;3.65;;
11394;SDS011;5753;54.402;10.220;2023-04-01T05:00:38;11.10;;;1.80;;
11394;SDS011;5753;54.402;10.220;2023-04-01T05:03:04;1.77;;;1.00;;
11394;SDS011;5753;54.402;10.220;2023-04-01T05:05:30;3.03;;;2.08;;
11394;SDS011;5753;54.402;10.220;2023-04-01T05:07:57;4.78;;;1.20;;
11394;SDS011;5753;54.402;10.220;2023-04-01T05:10:23;5.05;;;2.00;;
11394;SDS011;5753;54.402;10.220;2023-04-01T05:12:49;4.10;;;1.15;;
11394;SDS011;5753;54.402;10.220;2023-04-01T05:15:15;1.65;;;1.42;;
11394;SDS011;5753;54.402;10.220;2023-04-01T05:17:41;8.88;;;2.55;;
11394;SDS011;5753;54.402;10.220;2023-04-01T05:20:07;6.90;;;1.48;;
11394;SDS011;5753;54.402;10.220;2023-04-01T05:22:34;2.08;;;1.20;;
11394;SDS011;5753;54.402;10.220;2023-04-01T05:25:00;3.95;;;2.45;;
11394;SDS011;5753;54.402;10.220;2023-04-01T05:27:26;3.72;;;3.13;;
11394;SDS011;5753;54.402;10.220;2023-04-01T05:29:52;3.45;;;1.73;;
11394;SDS011;5753;54.402;10.220;2023-04-01T05:32:18;4.82;;;1.80;;
11394;SDS011;5753;54.402;10.220;2023-04-01T05:34:45;9.60;;;2.70;;
11394;SDS011;5753;54.402;10.220;2023-04-01T05:37:11;8.60;;;2.03;;
11394;SDS011;5753;54.402;10.220;2023-04-01T05:39:37;6.10;;;4.65;;
11394;SDS011;5753;54.402;10.220;2023-04-01T05:42:07;3.88;;;2.55;;
11394;SDS011;5753;54.402;10.220;2023-04-01T05:44:34;2.65;;;1.33;;
11394;SDS011;5753;54.402;10.220;2023-04-01T05:47:00;2.83;;;1.67;;
11394;SDS011;5753;54.402;10.220;2023-04-01T05:49:27;3.88;;;2.33;;
11394;SDS011;5753;54.402;10.220;2023-04-01T05:51:53;7.50;;;2.35;;
11394;SDS011;5753;54.402;10.220;2023-04-01T05:54:20;7.15;;;1.30;;
11394;SDS011;5753;54.402;10.220;2023-04-01T05:56:46;2.28;;;1.80;;
11394;SDS011;5753;54.402;10.220;2023-04-01T05:59:12;2.85;;;1.13;;
11394;SDS011;5753;54.402;10.220;2023-04-01T06:01:39;8.52;;;1.52;;
11394;SDS011;5753;54.402;10.220;2023-04-01T06:04:05;1.63;;;1.00;;
11394;SDS011;5753;54.402;10.220;2023-04-01T06:06:32;2.30;;;1.55;;
11394;SDS011;5753;54.402;10.220;2023-04-01T06:09:13;1.80;;;1.30;;
11394;SDS011;5753;54.402;10.220;2023-04-01T06:14:46;3.08;;;2.17;;
11394;SDS011;5753;54.402;10.220;2023-04-01T06:17:34;5.03;;;1.90;;
11394;SDS011;5753;54.402;10.220;2023-04-01T06:23:01;10.40;;;1.80;;
11394;SDS011;5753;54.402;10.220;2023-04-01T06:28:09;11.40;;;3.30;;
11394;SDS011;5753;54.402;10.220;2023-04-01T06:39:57;10.68;;;1.85;;
11394;SDS011;5753;54.402;10.220;2023-04-01T06:48:06;3.88;;;2.35;;
11394;SDS011;5753;54.402;10.220;2023-04-01T06:53:27;5.00;;;1.65;;
11394;SDS011;5753;54.402;10.220;2023-04-01T06:56:05;2.75;;;1.60;;
11394;SDS011;5753;54.402;10.220;2023-04-01T07:01:14;11.35;;;2.03;;
11394;SDS011;5753;54.402;10.220;2023-04-01T07:03:47;6.57;;;2.35;;
11394;SDS011;5753;54.402;10.220;2023-04-01T07:08:57;7.25;;;4.18;;
11394;SDS011;5753;54.402;10.220;2023-04-01T07:11:29;2.17;;;1.95;;
11394;SDS011;5753;54.402;10.220;2023-04-01T07:14:02;4.97;;;1.60;;
11394;SDS011;5753;54.402;10.220;2023-04-01T07:16:45;4.22;;;2.72;;
11394;SDS011;5753;54.402;10.220;2023-04-01T07:19:17;1.67;;;1.58;;
11394;SDS011;5753;54.402;10.220;2023-04-01T07:22:03;6.65;;;2.80;;
11394;SDS011;5753;54.402;10.220;2023-04-01T07:24:46;3.47;;;2.03;;
11394;SDS011;5753;54.402;10.220;2023-04-01T07:27:13;4.50;;;2.97;;
11394;SDS011;5753;54.402;10.220;2023-04-01T07:29:40;9.38;;;2.60;;
11394;SDS011;5753;54.402;10.220;2023-04-01T07:40:24;8.82;;;2.42;;
11394;SDS011;5753;54.402;10.220;2023-04-01T07:46:33;3.72;;;2.95;;
11394;SDS011;5753;54.402;10.220;2023-04-01T07:53:49;4.47;;;3.97;;
11394;SDS011;5753;54.402;10.220;2023-04-01T08:01:48;3.55;;;2.60;;
11394;SDS011;5753;54.402;10.220;2023-04-01T08:07:27;5.78;;;2.83;;
11394;SDS011;5753;54.402;10.220;2023-04-01T08:09:58;5.25;;;3.17;;
11394;SDS011;5753;54.402;10.220;2023-04-01T08:12:42;5.78;;;3.20;;
11394;SDS011;5753;54.402;10.220;2023-04-01T08:18:13;5.32;;;3.72;;
11394;SDS011;5753;54.402;10.220;2023-04-01T08:20:51;4.30;;;3.28;;
11394;SDS011;5753;54.402;10.220;2023-04-01T08:23:27;13.88;;;5.90;;
11394;SDS011;5753;54.402;10.220;2023-04-01T08:26:33;4.82;;;4.35;;
11394;SDS011;5753;54.402;10.220;2023-04-01T08:29:18;9.38;;;3.17;;
11394;SDS011;5753;54.402;10.220;2023-04-01T08:32:08;8.48;;;4.13;;
11394;SDS011;5753;54.402;10.220;2023-04-01T08:34:46;5.57;;;3.45;;
11394;SDS011;5753;54.402;10.220;2023-04-01T08:37:24;11.55;;;3.28;;
11394;SDS011;5753;54.402;10.220;2023-04-01T08:39:58;5.90;;;3.42;;
11394;SDS011;5753;54.402;10.220;2023-04-01T08:42:54;7.63;;;4.80;;
11394;SDS011;5753;54.402;10.220;2023-04-01T08:45:48;6.65;;;3.95;;
11394;SDS011;5753;54.402;10.220;2023-04-01T08:53:55;7.85;;;4.82;;
11394;SDS011;5753;54.402;10.220;2023-04-01T08:56:42;7.70;;;3.30;;
11394;SDS011;5753;54.402;10.220;2023-04-01T08:59:27;11.50;;;6.13;;
11394;SDS011;5753;54.402;10.220;2023-04-01T09:14:00;10.32;;;5.40;;
11394;SDS011;5753;54.402;10.220;2023-04-01T09:28:19;7.13;;;4.28;;
11394;SDS011;5753;54.402;10.220;2023-04-01T09:33:53;6.13;;;3.88;;
11394;SDS011;5753;54.402;10.220;2023-04-01T09:42:45;6.65;;;5.40;;
11394;SDS011;5753;54.402;10.220;2023-04-01T09:45:35;5.70;;;4.78;;
11394;SDS011;5753;54.402;10.220;2023-04-01T09:51:17;9.98;;;7.07;;
11394;SDS011;5753;54.402;10.220;2023-04-01T10:14:10;24.52;;;6.05;;
11394;SDS011;5753;54.402;10.220;2023-04-01T10:17:17;14.07;;;6.00;;
11394;SDS011;5753;54.402;10.220;2023-04-01T10:22:55;18.30;;;6.75;;
11394;SDS011;5753;54.402;10.220;2023-04-01T10:53:15;7.80;;;6.68;;
11394;SDS011;5753;54.402;10.220;2023-04-01T11:01:43;13.60;;;5.30;;
11394;SDS011;5753;54.402;10.220;2023-04-01T11:24:42;16.25;;;4.55;;
11394;SDS011;5753;54.402;10.220;2023-04-01T11:32:54;10.73;;;4.90;;
11394;SDS011;5753;54.402;10.220;2023-04-01T11:41:10;4.53;;;2.50;;
11394;SDS011;5753;54.402;10.220;2023-04-01T11:44:22;7.82;;;3.67;;
11394;SDS011;5753;54.402;10.220;2023-04-01T11:55:22;4.70;;;3.40;;
11394;SDS011;5753;54.402;10.220;2023-04-01T11:58:02;3.17;;;2.92;;
11394;SDS011;5753;54.402;10.220;2023-04-01T12:09:22;9.38;;;3.58;;
11394;SDS011;5753;54.402;10.220;2023-04-01T12:20:48;6.60;;;3.28;;
11394;SDS011;5753;54.402;10.220;2023-04-01T12:32:05;6.13;;;3.40;;
11394;SDS011;5753;54.402;10.220;2023-04-01T12:40:20;2.47;;;2.28;;
11394;SDS011;5753;54.402;10.220;2023-04-01T12:46:01;6.90;;;4.72;;
11394;SDS011;5753;54.402;10.220;2023-04-01T12:51:29;6.32;;;2.97;;
11394;SDS011;5753;54.402;10.220;2023-04-01T12:56:49;2.83;;;2.33;;
11394;SDS011;5753;54.402;10.220;2023-04-01T13:18:35;6.07;;;2.47;;
11394;SDS011;5753;54.402;10.220;2023-04-01T13:21:16;7.32;;;3.70;;
11394;SDS011;5753;54.402;10.220;2023-04-01T13:33:21;6.80;;;3.25;;
11394;SDS011;5753;54.402;10.220;2023-04-01T13:39:09;7.05;;;3.17;;
11394;SDS011;5753;54.402;10.220;2023-04-01T13:41:49;7.78;;;3.38;;
11394;SDS011;5753;54.402;10.220;2023-04-01T13:44:49;5.07;;;2.35;;
11394;SDS011;5753;54.402;10.220;2023-04-01T13:47:23;12.77;;;4.13;;
11394;SDS011;5753;54.402;10.220;2023-04-01T13:58:43;12.82;;;2.80;;
11394;SDS011;5753;54.402;10.220;2023-04-01T14:12:30;2.50;;;2.30;;
11394;SDS011;5753;54.402;10.220;2023-04-01T14:21:07;6.30;;;2.45;;
11394;SDS011;5753;54.402;10.220;2023-04-01T14:23:55;2.65;;;1.92;;
11394;SDS011;5753;54.402;10.220;2023-04-01T14:26:54;8.05;;;4.60;;
11394;SDS011;5753;54.402;10.220;2023-04-01T14:29:29;4.30;;;2.05;;
11394;SDS011;5753;54.402;10.220;2023-04-01T14:40:56;5.45;;;2.15;;
11394;SDS011;5753;54.402;10.220;2023-04-01T14:46:45;8.23;;;2.42;;
11394;SDS011;5753;54.402;10.220;2023-04-01T14:49:34;21.35;;;2.63;;
11394;SDS011;5753;54.402;10.220;2023-04-01T14:52:13;4.75;;;3.00;;
11394;SDS011;5753;54.402;10.220;2023-04-01T14:54:48;6.30;;;1.48;;
11394;SDS011;5753;54.402;10.220;2023-04-01T14:57:29;6.70;;;2.95;;
11394;SDS011;5753;54.402;10.220;2023-04-01T15:02:49;2.13;;;1.65;;
11394;SDS011;5753;54.402;10.220;2023-04-01T15:05:32;9.30;;;3.13;;
11394;SDS011;5753;54.402;10.220;2023-04-01T15:08:25;5.38;;;2.67;;
11394;SDS011;5753;54.402;10.220;2023-04-01T15:10:59;4.93;;;2.63;;
11394;SDS011;5753;54.402;10.220;2023-04-01T15:13:48;6.90;;;2.42;;
11394;SDS011;5753;54.402;10.220;2023-04-01T15:22:12;4.10;;;3.25;;
11394;SDS011;5753;54.402;10.220;2023-04-01T15:33:00;3.80;;;2.95;;
11394;SDS011;5753;54.402;10.220;2023-04-01T15:36:23;2.88;;;1.65;;
11394;SDS011;5753;54.402;10.220;2023-04-01T15:38:45;11.48;;;1.60;;
11394;SDS011;5753;54.402;10.220;2023-04-01T15:41:16;2.63;;;2.40;;
11394;SDS011;5753;54.402;10.220;2023-04-01T15:43:54;6.57;;;1.38;;
11394;SDS011;5753;54.402;10.220;2023-04-01T15:49:04;11.40;;;1.95;;
11394;SDS011;5753;54.402;10.220;2023-04-01T15:58:02;7.22;;;3.00;;
11394;SDS011;5753;54.402;10.220;2023-04-01T16:17:35;3.88;;;1.75;;
11394;SDS011;5753;54.402;10.220;2023-04-01T16:22:33;3.95;;;1.20;;
11394;SDS011;5753;54.402;10.220;2023-04-01T16:25:20;5.60;;;2.78;;
11394;SDS011;5753;54.402;10.220;2023-04-01T16:28:03;4.90;;;1.35;;
11394;SDS011;5753;54.402;10.220;2023-04-01T16:30:48;8.82;;;2.15;;
11394;SDS011;5753;54.402;10.220;2023-04-01T16:36:07;3.28;;;2.90;;
11394;SDS011;5753;54.402;10.220;2023-04-01T16:41:29;3.38;;;2.33;;
11394;SDS011;5753;54.402;10.220;2023-04-01T16:46:52;5.28;;;1.52;;
11394;SDS011;5753;54.402;10.220;2023-04-01T16:59:54;4.72;;;1.48;;
11394;SDS011;5753;54.402;10.220;2023-04-01T17:02:43;2.10;;;2.00;;
11394;SDS011;5753;54.402;10.220;2023-04-01T17:11:16;3.15;;;1.85;;
11394;SDS011;5753;54.402;10.220;2023-04-01T17:22:13;8.45;;;1.98;;
11394;SDS011;5753;54.402;10.220;2023-04-01T17:30:51;5.07;;;1.60;;
11394;SDS011;5753;54.402;10.220;2023-04-01T17:33:42;5.45;;;2.15;;
11394;SDS011;5753;54.402;10.220;2023-04-01T17:41:57;1.83;;;1.23;;
11394;SDS011;5753;54.402;10.220;2023-04-01T17:58:40;6.75;;;1.90;;
11394;SDS011;5753;54.402;10.220;2023-04-01T18:01:24;2.50;;;1.10;;
11394;SDS011;5753;54.402;10.220;2023-04-01T18:04:08;2.78;;;1.20;;
11394;SDS011;5753;54.402;10.220;2023-04-01T18:12:52;2.65;;;1.58;;
11394;SDS011;5753;54.402;10.220;2023-04-01T18:20:46;4.03;;;2.33;;
11394;SDS011;5753;54.402;10.220;2023-04-01T18:26:20;9.93;;;1.75;;
11394;SDS011;5753;54.402;10.220;2023-04-01T18:29:44;5.55;;;1.95;;
11394;SDS011;5753;54.402;10.220;2023-04-01T18:43:10;2.50;;;1.55;;
11394;SDS011;5753;54.402;10.220;2023-04-01T18:45:45;4.35;;;1.10;;
11394;SDS011;5753;54.402;10.220;2023-04-01T18:51:13;2.28;;;1.65;;
11394;SDS011;5753;54.402;10.220;2023-04-01T18:54:00;5.70;;;2.35;;
11394;SDS011;5753;54.402;10.220;2023-04-01T18:56:38;2.22;;;1.98;;
11394;SDS011;5753;54.402;10.220;2023-04-01T18:59:21;2.70;;;2.22;;
11394;SDS011;5753;54.402;10.220;2023-04-01T19:02:01;6.68;;;2.33;;
11394;SDS011;5753;54.402;10.220;2023-04-01T19:10:07;5.05;;;1.80;;
11394;SDS011;5753;54.402;10.220;2023-04-01T19:18:45;6.30;;;2.10;;
11394;SDS011;5753;54.402;10.220;2023-04-01T19:35:42;7.05;;;1.45;;
11394;SDS011;5753;54.402;10.220;2023-04-01T19:44:20;7.35;;;2.40;;
11394;SDS011;5753;54.402;10.220;2023-04-01T19:49:48;6.55;;;3.08;;
11394;SDS011;5753;54.402;10.220;2023-04-01T19:57:40;2.15;;;1.85;;
11394;SDS011;5753;54.402;10.220;2023-04-01T20:00:31;3.08;;;2.75;;
11394;SDS011;5753;54.402;10.220;2023-04-01T20:08:44;0.63;;;0.63;;
11394;SDS011;5753;54.402;10.220;2023-04-01T20:17:01;0.65;;;0.65;;
11394;SDS011;5753;54.402;10.220;2023-04-01T20:19:42;6.53;;;1.05;;
11394;SDS011;5753;54.402;10.220;2023-04-01T20:24:59;2.13;;;1.23;;
11394;SDS011;5753;54.402;10.220;2023-04-01T20:28:28;2.80;;;0.88;;
11394;SDS011;5753;54.402;10.220;2023-04-01T20:36:01;1.85;;;1.00;;
11394;SDS011;5753;54.402;10.220;2023-04-01T20:44:36;1.58;;;1.30;;
11394;SDS011;5753;54.402;10.220;2023-04-01T20:58:38;3.35;;;2.30;;
11394;SDS011;5753;54.402;10.220;2023-04-01T21:01:20;6.63;;;1.27;;
11394;SDS011;5753;54.402;10.220;2023-04-01T21:09:29;1.60;;;1.20;;
11394;SDS011;5753;54.402;10.220;2023-04-01T21:22:59;4.20;;;2.75;;
11394;SDS011;5753;54.402;10.220;2023-04-01T21:29:15;1.92;;;1.08;;
11394;SDS011;5753;54.402;10.220;2023-04-01T21:38:21;1.65;;;0.88;;
11394;SDS011;5753;54.402;10.220;2023-04-01T21:54:26;4.43;;;1.27;;
11394;SDS011;5753;54.402;10.220;2023-04-01T21:57:04;6.63;;;1.20;;
11394;SDS011;5753;54.402;10.220;2023-04-01T21:59:58;2.83;;;0.98;;
11394;SDS011;5753;54.402;10.220;2023-04-01T22:05:43;1.88;;;0.98;;
11394;SDS011;5753;54.402;10.220;2023-04-01T22:08:24;1.90;;;0.85;;
11394;SDS011;5753;54.402;10.220;2023-04-01T22:11:15;4.05;;;1.55;;
11394;SDS011;5753;54.402;10.220;2023-04-01T22:17:00;1.65;;;0.88;;
11394;SDS011;5753;54.402;10.220;2023-04-01T22:19:52;2.03;;;1.45;;
11394;SDS011;5753;54.402;10.220;2023-04-01T22:25:38;1.90;;;1.58;;
11394;SDS011;5753;54.402;10.220;2023-04-01T22:31:25;0.95;;;0.52;;
11394;SDS011;5753;54.402;10.220;2023-04-01T22:45:59;2.80;;;0.70;;
11394;SDS011;5753;54.402;10.220;2023-04-01T22:51:30;2.75;;;0.98;;
11394;SDS011;5753;54.402;10.220;2023-04-01T22:56:46;2.40;;;1.30;;
11394;SDS011;5753;54.402;10.220;2023-04-01T22:59:29;1.48;;;0.50;;
11394;SDS011;5753;54.402;10.220;2023-04-01T23:04:42;0.90;;;0.75;;
11394;SDS011;5753;54.402;10.220;2023-04-01T23:07:19;3.15;;;2.30;;
11394;SDS011;5753;54.402;10.220;2023-04-01T23:09:49;2.72;;;1.58;;
11394;SDS011;5753;54.402;10.220;2023-04-01T23:12:17;3.13;;;1.05;;
11394;SDS011;5753;54.402;10.220;2023-04-01T23:14:58;1.23;;;0.95;;
11394;SDS011;5753;54.402;10.220;2023-04-01T23:28:47;4.47;;;1.58;;
11394;SDS011;5753;54.402;10.220;2023-04-01T23:34:17;1.13;;;1.02;;
11394;SDS011;5753;54.402;10.220;2023-04-01T23:36:55;0.90;;;0.70;;
11394;SDS011;5753;54.402;10.220;2023-04-01T23:39:35;3.78;;;1.00;;
11394;SDS011;5753;54.402;10.220;2023-04-01T23:42:47;1.45;;;1.42;;
11394;SDS011;5753;54.402;10.220;2023-04-01T23:45:03;0.95;;;0.70;;
11394;SDS011;5753;54.402;10.220;2023-04-01T23:47:38;1.95;;;0.85;;
11394;SDS011;5753;54.402;10.220;2023-04-01T23:50:24;2.58;;;0.98;;
11394;SDS011;5753;54.402;10.220;2023-04-01T23:52:52;1.67;;;0.90;;
11394;SDS011;5753;54.402;10.220;2023-04-01T23:55:25;1.40;;;0.57;;
11394;SDS011;5753;54.402;10.220;2023-04-01T23:58:02;1.90;;;1.15;;
